Time;durP1;ratioP1;P1;durP2;ratioP2;P2;SDS_P1;SDS_P2;PMS_P1;PMS_P2;Temp;Humidity;BMP_temperature;BMP_pressure;BME280_temperature;BME280_humidity;BME280_pressure;Samples;Min_cycle;Max_cycle;Signal;HPM_P1;HPM_P2
2024/03/20 00:00:28;;;;;;;17.20;8.20;;;;;;;4.74;62.58;100862.33;105259;1254;61637;-55
2024/03/20 00:02:56;;;;;;;23.60;11.10;;;;;;;4.67;62.34;100863.68;105215;1259;63740;-56
2024/03/20 00:05:23;;;;;;;21.40;10.60;;;;;;;4.59;62.33;100861.09;105874;1256;61359;-57
2024/03/20 00:07:51;;;;;;;19.30;10.20;;;;;;;4.59;62.28;100863.36;104809;1259;498850;-56
2024/03/20 00:11:49;;;;;;;18.30;11.40;;;;;;;4.24;63.10;100863.04;102261;1293;600603;-57
2024/03/20 00:14:17;;;;;;;22.60;13.00;;;;;;;4.51;62.40;100860.98;104608;1269;59667;-56
2024/03/20 00:16:45;;;;;;;20.90;11.30;;;;;;;4.51;62.21;100858.67;105059;1262;59830;-56
2024/03/20 00:19:13;;;;;;;23.90;11.00;;;;;;;4.47;62.16;100853.30;105263;1258;62904;-57
2024/03/20 00:21:40;;;;;;;22.30;12.30;;;;;;;4.41;62.31;100851.67;105099;1258;61417;-57
2024/03/20 00:24:08;;;;;;;18.30;11.50;;;;;;;4.36;62.40;100844.46;105041;1260;62413;-56
2024/03/20 00:26:35;;;;;;;22.70;11.20;;;;;;;4.36;62.38;100840.98;105325;1256;235334;-57
2024/03/20 00:29:03;;;;;;;17.40;7.70;;;;;;;4.39;62.26;100845.18;105075;1257;59873;-57
2024/03/20 00:31:30;;;;;;;11.90;4.50;;;;;;;4.41;62.22;100848.58;105684;1256;64140;-58
2024/03/20 00:33:58;;;;;;;13.10;5.60;;;;;;;4.42;62.20;100851.46;106484;1254;71054;-56
2024/03/20 00:36:25;;;;;;;16.50;7.30;;;;;;;4.44;62.06;100851.39;105832;1254;63816;-57
2024/03/20 00:38:53;;;;;;;28.60;20.40;;;;;;;4.44;61.99;100849.83;105138;1257;60648;-57
2024/03/20 00:41:20;;;;;;;16.30;9.90;;;;;;;4.40;61.87;100849.64;105195;1254;60535;-56
2024/03/20 00:43:48;;;;;;;14.70;8.00;;;;;;;4.36;61.71;100847.56;105210;1254;64873;-59
2024/03/20 00:46:16;;;;;;;17.20;9.40;;;;;;;4.32;61.51;100846.53;105154;1254;61352;-58
2024/03/20 00:48:43;;;;;;;19.60;9.50;;;;;;;4.28;61.66;100850.55;105173;1254;63840;-58
2024/03/20 00:51:11;;;;;;;30.70;10.00;;;;;;;4.24;61.53;100849.86;105366;1255;60411;-57
2024/03/20 00:53:38;;;;;;;22.50;10.80;;;;;;;4.18;61.51;100847.71;105171;1254;60475;-56
2024/03/20 00:56:06;;;;;;;20.30;10.20;;;;;;;4.15;61.78;100844.04;105335;1251;65324;-56
2024/03/20 00:58:33;;;;;;;28.90;12.00;;;;;;;4.13;61.88;100836.86;105461;1251;61305;-56
2024/03/20 01:01:01;;;;;;;20.70;10.90;;;;;;;4.16;62.05;100835.48;105526;1254;64126;-56
2024/03/20 01:03:28;;;;;;;24.10;12.30;;;;;;;4.21;62.16;100835.08;105192;1254;60309;-56
2024/03/20 01:05:56;;;;;;;23.10;12.00;;;;;;;4.26;62.07;100831.89;109182;1252;58233;-57
2024/03/20 01:08:23;;;;;;;23.60;10.80;;;;;;;4.27;62.13;100832.52;109342;1251;64817;-57
2024/03/20 01:10:50;;;;;;;28.40;12.30;;;;;;;4.27;62.25;100831.17;109210;1254;62256;-57
2024/03/20 01:13:18;;;;;;;29.50;11.10;;;;;;;4.25;62.35;100827.24;109283;1253;66695;-57
2024/03/20 01:15:46;;;;;;;20.50;10.90;;;;;;;4.22;62.31;100824.25;107105;1254;60417;-56
2024/03/20 01:18:13;;;;;;;19.00;9.60;;;;;;;4.23;62.27;100821.98;105157;1251;60543;-56
2024/03/20 01:20:41;;;;;;;27.20;13.60;;;;;;;4.23;62.24;100821.23;105266;1256;65258;-56
2024/03/20 01:23:08;;;;;;;25.30;12.80;;;;;;;4.23;62.46;100823.17;105259;1257;60513;-56
2024/03/20 01:25:36;;;;;;;24.30;10.20;;;;;;;4.20;62.63;100819.50;105290;1254;63687;-57
2024/03/20 01:28:04;;;;;;;26.60;10.40;;;;;;;4.15;62.72;100819.18;109122;1251;60535;-57
2024/03/20 01:30:32;;;;;;;23.70;14.30;;;;;;;4.10;62.87;100822.02;105798;1255;60453;-55
2024/03/20 01:32:59;;;;;;;27.00;13.20;;;;;;;4.09;62.89;100820.17;105232;1256;64926;-57
2024/03/20 01:35:27;;;;;;;25.50;13.10;;;;;;;4.09;63.04;100813.73;105209;1254;60504;-58
2024/03/20 01:37:54;;;;;;;27.90;11.80;;;;;;;4.07;63.09;100810.68;106048;1256;71703;-57
2024/03/20 01:40:21;;;;;;;22.10;10.90;;;;;;;4.03;63.25;100810.89;105297;1254;60393;-55
2024/03/20 01:42:54;;;;;;;23.10;13.20;;;;;;;3.99;63.35;100811.05;105376;1256;60494;-56
2024/03/20 01:45:21;;;;;;;20.40;10.20;;;;;;;3.96;63.35;100805.51;105563;1251;64967;-56
2024/03/20 01:47:49;;;;;;;19.00;8.30;;;;;;;3.97;63.34;100804.05;105306;1251;61316;-56
2024/03/20 01:50:16;;;;;;;19.90;9.80;;;;;;;4.00;63.43;100805.14;105279;1251;63888;-57
2024/03/20 01:52:55;;;;;;;16.10;8.70;;;;;;;4.02;63.59;100806.80;105291;1254;60586;-57
2024/03/20 01:55:23;;;;;;;15.50;7.60;;;;;;;4.01;63.75;100809.77;106197;1253;60450;-58
2024/03/20 01:57:53;;;;;;;17.60;9.40;;;;;;;3.98;63.83;100807.30;105441;1251;64930;-56
2024/03/20 02:00:27;;;;;;;19.90;8.40;;;;;;;3.97;63.88;100809.41;105462;1257;60449;-56
2024/03/20 02:02:56;;;;;;;21.00;9.70;;;;;;;4.00;63.93;100805.46;107689;1254;62445;-57
2024/03/20 02:05:24;;;;;;;17.50;9.30;;;;;;;4.04;64.04;100804.62;105167;1254;60545;-60
2024/03/20 02:07:53;;;;;;;16.80;8.50;;;;;;;4.05;64.14;100801.59;105381;1251;60526;-57
2024/03/20 02:10:21;;;;;;;17.50;8.00;;;;;;;4.05;64.23;100799.86;106158;1254;65332;-57
2024/03/20 02:13:05;;;;;;;18.70;8.90;;;;;;;4.03;64.18;100799.98;105415;1251;61358;-56
2024/03/20 02:15:33;;;;;;;14.70;7.80;;;;;;;3.99;64.20;100801.02;105278;1251;62728;-57
2024/03/20 02:18:01;;;;;;;23.10;9.00;;;;;;;3.99;64.04;100802.91;105460;1252;60524;-57
2024/03/20 02:20:28;;;;;;;14.20;7.30;;;;;;;4.02;63.95;100801.22;105433;1256;60424;-57
2024/03/20 02:22:58;;;;;;;19.40;9.50;;;;;;;4.05;63.91;100799.15;105300;1251;64895;-57
2024/03/20 02:25:29;;;;;;;18.50;8.30;;;;;;;4.08;63.97;100799.90;106124;1253;61439;-57
2024/03/20 02:27:57;;;;;;;15.40;7.00;;;;;;;4.07;64.06;100802.55;106139;1251;63741;-56
2024/03/20 02:30:24;;;;;;;11.40;5.90;;;;;;;4.04;64.11;100809.30;106175;1256;60552;-56
2024/03/20 02:32:52;;;;;;;13.40;7.20;;;;;;;3.97;64.10;100812.20;105129;1251;60367;-56
2024/03/20 02:35:19;;;;;;;16.20;7.10;;;;;;;3.93;64.19;100817.45;105543;1253;65193;-55
2024/03/20 02:37:47;;;;;;;14.50;6.60;;;;;;;3.94;64.14;100816.34;105337;1254;61284;-56
2024/03/20 02:40:14;;;;;;;12.90;6.20;;;;;;;4.00;63.98;100817.29;105433;1254;63697;-56
2024/03/20 02:42:42;;;;;;;9.70;4.80;;;;;;;4.06;64.03;100819.62;105336;1253;60428;-56
2024/03/20 02:45:10;;;;;;;9.10;3.00;;;;;;;4.11;64.00;100817.98;105731;1253;60345;-56
2024/03/20 02:47:37;;;;;;;12.10;5.60;;;;;;;4.16;63.73;100815.00;105358;1257;65027;-56
2024/03/20 02:50:05;;;;;;;14.20;5.40;;;;;;;4.18;63.63;100810.21;107486;1253;60405;-57
2024/03/20 02:52:32;;;;;;;16.30;6.10;;;;;;;4.16;63.45;100808.20;105800;1253;63657;-57
2024/03/20 02:55:00;;;;;;;21.00;7.70;;;;;;;4.11;63.44;100810.69;105324;1254;60482;-57
2024/03/20 02:57:27;;;;;;;14.80;7.00;;;;;;;4.09;63.56;100816.02;105287;1251;60510;-57
2024/03/20 02:59:55;;;;;;;13.40;6.90;;;;;;;4.07;63.44;100816.96;108615;1254;65007;-57
2024/03/20 03:02:23;;;;;;;13.80;7.20;;;;;;;4.01;63.21;100817.42;105422;1254;60505;-57
2024/03/20 03:04:50;;;;;;;12.20;5.80;;;;;;;3.96;63.29;100815.37;105397;1254;63839;-58
2024/03/20 03:07:18;;;;;;;13.80;6.40;;;;;;;3.94;63.12;100813.90;105447;1251;60386;-58
2024/03/20 03:09:45;;;;;;;16.30;7.50;;;;;;;3.85;63.14;100815.70;105761;1251;60409;-59
2024/03/20 03:12:13;;;;;;;10.00;5.80;;;;;;;3.76;63.08;100812.99;105476;1252;65324;-58
2024/03/20 03:14:42;;;;;;;10.60;4.20;;;;;;;3.73;62.97;100817.98;105475;1251;62055;-57
2024/03/20 03:17:17;;;;;;;11.60;3.30;;;;;;;3.75;63.03;100823.60;105521;1254;62626;-57
2024/03/20 03:19:44;;;;;;;10.50;4.50;;;;;;;3.79;62.89;100827.95;105340;1256;60402;-55
2024/03/20 03:22:12;;;;;;;8.10;4.30;;;;;;;3.78;62.61;100825.55;105545;1257;60383;-56
2024/03/20 03:24:39;;;;;;;7.40;4.00;;;;;;;3.79;62.54;100825.19;105402;1251;64960;-55
2024/03/20 03:27:07;;;;;;;9.60;4.70;;;;;;;3.86;62.82;100824.17;105328;1251;61377;-55
2024/03/20 03:29:34;;;;;;;12.90;5.20;;;;;;;3.96;63.06;100828.42;105191;1254;64742;-54
2024/03/20 03:32:02;;;;;;;9.20;4.40;;;;;;;4.01;63.12;100833.58;105306;1251;60441;-56
2024/03/20 03:34:30;;;;;;;12.00;5.50;;;;;;;4.03;63.12;100836.61;107611;1257;59337;-56
2024/03/20 03:36:58;;;;;;;12.50;5.60;;;;;;;4.02;63.02;100836.11;105436;1251;63629;-56
2024/03/20 03:39:26;;;;;;;13.70;6.00;;;;;;;3.99;62.77;100838.35;106728;1254;62033;-56
2024/03/20 03:41:53;;;;;;;10.50;4.60;;;;;;;3.87;62.34;100838.49;105454;1254;62531;-55
2024/03/20 03:44:22;;;;;;;11.60;5.80;;;;;;;3.79;62.50;100837.85;105471;1254;61088;-56
2024/03/20 03:46:53;;;;;;;12.50;5.50;;;;;;;3.77;62.77;100835.52;105533;1252;60894;-56
2024/03/20 03:49:20;;;;;;;9.20;4.30;;;;;;;3.79;62.97;100831.44;105668;1254;65330;-58
2024/03/20 03:51:48;;;;;;;11.20;4.10;;;;;;;3.86;62.81;100828.85;106383;1253;60393;-57
2024/03/20 03:54:15;;;;;;;9.90;4.80;;;;;;;3.96;62.84;100830.15;105206;1256;63689;-57
2024/03/20 03:56:43;;;;;;;10.50;4.90;;;;;;;4.04;62.86;100827.50;105393;1252;60559;-56
2024/03/20 03:59:11;;;;;;;10.10;4.90;;;;;;;4.10;62.92;100822.73;105616;1254;60370;-55
2024/03/20 04:01:38;;;;;;;12.80;6.30;;;;;;;4.13;62.87;100823.29;105356;1251;65376;-56
2024/03/20 04:04:06;;;;;;;10.50;4.80;;;;;;;4.14;62.73;100823.25;105410;1256;61603;-58
2024/03/20 04:06:34;;;;;;;11.60;5.60;;;;;;;4.12;62.58;100825.93;105395;1257;62430;-56
2024/03/20 04:09:01;;;;;;;11.70;4.70;;;;;;;4.08;62.58;100829.77;105787;1254;60089;-56
2024/03/20 04:11:29;;;;;;;11.50;4.70;;;;;;;4.02;62.55;100832.98;105544;1251;61241;-58
2024/03/20 04:13:56;;;;;;;14.70;5.40;;;;;;;4.00;62.44;100837.80;106128;1251;63653;-55
2024/03/20 04:16:24;;;;;;;8.90;4.50;;;;;;;4.02;62.49;100842.01;105473;1251;61391;-55
2024/03/20 04:18:51;;;;;;;10.10;4.80;;;;;;;4.08;62.57;100837.40;106320;1256;65997;-55
2024/03/20 04:21:23;;;;;;;9.50;5.00;;;;;;;4.16;62.70;100830.11;105496;1257;60108;-61
2024/03/20 04:23:51;;;;;;;11.30;5.30;;;;;;;4.21;62.96;100827.61;105415;1257;61244;-61
2024/03/20 04:26:19;;;;;;;13.30;4.90;;;;;;;4.25;63.09;100827.60;105597;1251;64423;-61
2024/03/20 04:28:48;;;;;;;10.00;4.50;;;;;;;4.27;63.32;100835.14;105450;1251;61924;-61
2024/03/20 04:31:15;;;;;;;9.90;4.70;;;;;;;4.29;63.40;100843.20;105679;1254;63737;-60
2024/03/20 04:33:43;;;;;;;9.40;3.90;;;;;;;4.34;63.39;100845.42;105364;1252;63459;-60
2024/03/20 04:36:12;;;;;;;8.60;2.80;;;;;;;4.39;63.63;100846.57;105313;1251;61365;-61
2024/03/20 04:38:40;;;;;;;11.70;5.20;;;;;;;4.46;63.85;100854.10;105666;1256;66135;-60
2024/03/20 04:41:10;;;;;;;9.70;4.00;;;;;;;4.53;64.11;100851.84;105305;1257;61266;-60
2024/03/20 04:43:38;;;;;;;13.70;6.00;;;;;;;4.55;64.02;100855.05;105677;1251;64269;-60
2024/03/20 04:46:05;;;;;;;13.90;6.70;;;;;;;4.54;64.27;100860.64;105157;1254;61384;-61
2024/03/20 04:48:33;;;;;;;12.40;6.30;;;;;;;4.54;64.29;100862.02;105051;1251;61006;-61
2024/03/20 04:51:00;;;;;;;9.60;4.70;;;;;;;4.55;64.50;100857.80;105201;1251;64492;-60
2024/03/20 04:53:28;;;;;;;10.30;4.40;;;;;;;4.61;64.44;100864.83;105246;1257;63372;-59
2024/03/20 04:55:55;;;;;;;11.50;5.80;;;;;;;4.66;64.33;100867.23;105365;1257;75242;-62
2024/03/20 04:58:23;;;;;;;11.60;6.00;;;;;;;4.68;64.51;100863.64;105207;1252;62377;-61
2024/03/20 05:00:50;;;;;;;10.20;5.40;;;;;;;4.69;64.64;100865.18;105308;1251;62826;-60
2024/03/20 05:03:18;;;;;;;11.70;5.30;;;;;;;4.66;64.73;100870.64;105034;1251;64661;-58
2024/03/20 05:05:45;;;;;;;13.20;5.10;;;;;;;4.62;64.89;100869.13;105402;1251;61575;-60
2024/03/20 05:08:17;;;;;;;15.10;6.90;;;;;;;4.63;65.07;100862.30;105406;1256;63871;-62
2024/03/20 05:10:45;;;;;;;15.50;5.90;;;;;;;4.69;65.12;100857.14;105454;1257;61225;-62
2024/03/20 05:13:13;;;;;;;12.80;6.30;;;;;;;4.72;65.30;100866.38;105448;1256;61323;-63
2024/03/20 05:15:40;;;;;;;13.60;6.70;;;;;;;4.71;65.54;100874.44;104983;1254;66409;-61
2024/03/20 05:18:08;;;;;;;12.20;6.50;;;;;;;4.69;65.71;100876.96;104911;1251;61672;-64
2024/03/20 05:20:41;;;;;;;13.50;7.20;;;;;;;4.71;65.89;100875.15;105377;1254;66150;-62
2024/03/20 05:23:10;;;;;;;16.40;6.50;;;;;;;4.78;65.87;100877.90;105246;1254;61329;-64
2024/03/20 05:25:39;;;;;;;12.80;6.40;;;;;;;4.84;65.86;100885.98;105462;1257;59557;-62
2024/03/20 05:28:08;;;;;;;12.30;6.20;;;;;;;4.84;65.95;100887.20;105879;1256;65710;-62
2024/03/20 05:30:35;;;;;;;13.60;5.30;;;;;;;4.83;66.04;100886.17;105376;1257;61340;-60
2024/03/20 05:33:05;;;;;;;11.00;5.90;;;;;;;4.83;66.10;100890.19;105212;1252;63732;-61
2024/03/20 05:35:32;;;;;;;16.00;7.10;;;;;;;4.88;65.93;100900.20;105368;1255;61365;-58
2024/03/20 05:38:00;;;;;;;11.20;5.20;;;;;;;4.93;65.84;100905.73;105347;1253;61333;-62
2024/03/20 05:40:28;;;;;;;14.60;5.70;;;;;;;4.97;65.75;100903.07;105558;1257;65735;-59
2024/03/20 05:42:56;;;;;;;13.30;4.70;;;;;;;4.99;65.74;100897.76;105383;1254;61221;-61
2024/03/20 05:45:26;;;;;;;12.70;6.10;;;;;;;4.97;65.61;100894.89;105267;1256;62888;-54
2024/03/20 05:47:54;;;;;;;10.80;5.40;;;;;;;4.94;65.76;100888.98;105959;1254;61249;-60
2024/03/20 05:50:21;;;;;;;12.40;5.80;;;;;;;4.94;65.69;100881.50;105356;1257;61209;-61
2024/03/20 05:52:49;;;;;;;11.90;5.20;;;;;;;4.98;65.54;100882.85;105285;1258;65712;-55
2024/03/20 05:55:16;;;;;;;14.10;6.30;;;;;;;5.01;65.44;100879.42;105248;1256;62451;-55
2024/03/20 05:57:50;;;;;;;13.30;5.90;;;;;;;5.01;65.47;100880.45;105637;1252;64226;-53
2024/03/20 06:00:25;;;;;;;11.40;5.00;;;;;;;5.01;65.50;100877.85;106274;1256;61275;-55
2024/03/20 06:02:52;;;;;;;12.20;5.70;;;;;;;4.99;65.46;100881.96;105412;1256;61352;-54
2024/03/20 06:05:20;;;;;;;13.90;6.50;;;;;;;5.01;65.65;100882.20;105371;1257;76828;-55
2024/03/20 06:07:50;;;;;;;13.50;5.20;;;;;;;5.07;65.65;100877.04;105403;1259;61281;-55
2024/03/20 06:10:18;;;;;;;15.10;6.20;;;;;;;5.14;65.72;100872.88;105682;1251;74971;-55
2024/03/20 06:12:47;;;;;;;13.30;6.00;;;;;;;5.17;65.86;100874.30;105600;1253;61441;-55
2024/03/20 06:15:16;;;;;;;11.20;5.80;;;;;;;5.18;65.73;100875.31;105505;1251;61236;-56
2024/03/20 06:17:43;;;;;;;10.80;5.60;;;;;;;5.15;65.77;100879.10;105568;1253;66134;-62
2024/03/20 06:20:11;;;;;;;15.30;7.40;;;;;;;5.18;66.05;100877.69;105598;1256;61371;-60
2024/03/20 06:22:38;;;;;;;16.20;6.30;;;;;;;5.24;65.92;100878.98;105350;1251;62444;-62
2024/03/20 06:25:07;;;;;;;13.40;5.30;;;;;;;5.25;65.79;100882.95;105656;1257;61157;-62
2024/03/20 06:27:35;;;;;;;11.50;6.00;;;;;;;5.24;65.91;100891.17;105641;1251;61280;-60
2024/03/20 06:30:15;;;;;;;13.60;5.50;;;;;;;5.18;65.87;100894.27;106721;1251;64632;-60
2024/03/20 06:32:43;;;;;;;24.10;12.80;;;;;;;5.09;65.96;100895.58;105284;1257;61316;-60
2024/03/20 06:35:11;;;;;;;11.60;4.70;;;;;;;5.08;66.03;100898.54;105304;1251;62491;-65
2024/03/20 06:37:38;;;;;;;14.60;5.30;;;;;;;5.12;66.10;100899.76;105693;1254;61244;-64
2024/03/20 06:40:07;;;;;;;10.30;5.90;;;;;;;5.18;66.09;100906.75;105165;1259;61273;-67
2024/03/20 06:42:35;;;;;;;11.50;5.80;;;;;;;5.17;66.18;100906.81;106603;1259;65748;-69
2024/03/20 06:45:05;;;;;;;16.20;6.80;;;;;;;5.17;66.23;100903.70;105916;1254;61274;-66
2024/03/20 06:47:32;;;;;;;12.30;4.70;;;;;;;5.22;66.05;100909.90;106053;1254;62689;-71
2024/03/20 06:50:01;;;;;;;12.90;5.30;;;;;;;5.26;65.85;100913.69;105831;1256;61332;-70
2024/03/20 06:52:38;;;;;;;14.30;6.60;;;;;;;5.29;65.94;100915.27;106458;1252;61281;-69
2024/03/20 06:55:07;;;;;;;11.50;5.30;;;;;;;5.30;65.97;100917.64;106284;1256;65836;-63
2024/03/20 06:57:35;;;;;;;13.70;5.80;;;;;;;5.28;65.98;100919.33;105863;1251;63923;-66
2024/03/20 07:00:06;;;;;;;12.30;4.90;;;;;;;5.25;65.72;100921.91;106642;1251;62454;-66
2024/03/20 07:02:34;;;;;;;14.10;6.40;;;;;;;5.26;65.61;100922.06;106612;1256;61132;-66
2024/03/20 07:05:01;;;;;;;17.50;6.20;;;;;;;5.27;65.56;100918.31;106278;1252;61399;-66
2024/03/20 07:07:29;;;;;;;17.60;6.40;;;;;;;5.31;65.64;100919.55;106324;1251;68767;-65
2024/03/20 07:09:56;;;;;;;12.70;6.40;;;;;;;5.28;65.58;100920.55;106216;1251;61221;-64
2024/03/20 07:12:24;;;;;;;13.70;6.10;;;;;;;5.24;65.62;100920.08;106184;1251;74849;-63
2024/03/20 07:14:52;;;;;;;12.30;6.00;;;;;;;5.28;65.53;100921.60;106253;1253;61861;-62
2024/03/20 07:17:19;;;;;;;16.80;6.30;;;;;;;5.34;65.41;100922.00;105139;1255;62417;-66
2024/03/20 07:19:52;;;;;;;13.90;8.20;;;;;;;5.29;65.50;100918.92;105201;1257;68215;-67
2024/03/20 07:22:20;;;;;;;15.00;5.00;;;;;;;5.23;65.52;100917.31;106277;1254;73148;-66
2024/03/20 07:24:48;;;;;;;12.10;6.10;;;;;;;5.23;65.35;100915.42;106122;1251;75811;-66
2024/03/20 07:27:15;;;;;;;12.80;6.10;;;;;;;5.24;65.33;100915.02;106344;1253;61346;-67
2024/03/20 07:29:43;;;;;;;12.00;6.20;;;;;;;5.23;65.41;100912.27;106361;1256;62242;-69
2024/03/20 07:32:13;;;;;;;13.20;7.30;;;;;;;5.16;65.45;100909.27;106397;1252;64926;-68
2024/03/20 07:34:42;;;;;;;14.90;7.20;;;;;;;5.12;65.39;100910.73;106592;1252;72613;-68
2024/03/20 07:37:09;;;;;;;10.70;5.70;;;;;;;5.14;65.20;100918.95;105651;1253;74847;-66
2024/03/20 07:39:38;;;;;;;12.80;6.40;;;;;;;5.15;65.31;100919.60;105341;1254;61326;-65
2024/03/20 07:42:06;;;;;;;12.80;5.10;;;;;;;5.15;65.41;100914.07;105693;1257;62374;-69
2024/03/20 07:44:34;;;;;;;14.40;6.20;;;;;;;5.09;65.48;100916.94;106725;1254;64572;-65
2024/03/20 07:47:03;;;;;;;9.70;5.30;;;;;;;5.09;65.38;100912.78;105440;1256;71642;-66
2024/03/20 07:49:31;;;;;;;13.90;5.30;;;;;;;5.12;65.43;100909.67;105933;1257;74583;-75
2024/03/20 07:51:58;;;;;;;13.30;6.30;;;;;;;5.18;65.38;100910.07;106103;1253;61885;-68
2024/03/20 07:54:27;;;;;;;12.70;4.60;;;;;;;5.16;65.34;100910.87;105522;1251;62243;-69
2024/03/20 07:56:54;;;;;;;13.80;5.50;;;;;;;5.15;65.43;100909.48;105603;1251;64617;-62
2024/03/20 07:59:23;;;;;;;10.50;4.90;;;;;;;5.20;65.48;100905.79;105506;1255;71759;-64
2024/03/20 08:01:51;;;;;;;11.20;5.60;;;;;;;5.27;65.27;100897.66;105498;1256;73677;-65
2024/03/20 08:04:19;;;;;;;12.50;4.60;;;;;;;5.35;64.96;100901.21;105377;1251;62396;-71
2024/03/20 08:06:47;;;;;;;9.70;5.50;;;;;;;5.38;65.07;100901.42;105269;1256;59703;-68
2024/03/20 08:09:15;;;;;;;10.60;5.50;;;;;;;5.40;64.72;100895.06;106533;1251;64579;-67
2024/03/20 08:11:42;;;;;;;11.60;4.40;;;;;;;5.46;64.67;100890.61;106311;1256;60825;-66
2024/03/20 08:14:10;;;;;;;7.90;4.30;;;;;;;5.52;64.42;100887.00;105347;1254;74935;-65
2024/03/20 08:16:38;;;;;;;9.70;3.50;;;;;;;5.52;64.47;100884.89;105804;1254;61365;-69
2024/03/20 08:19:07;;;;;;;10.90;4.90;;;;;;;5.51;64.61;100885.49;105716;1256;61358;-64
2024/03/20 08:21:35;;;;;;;9.50;3.80;;;;;;;5.53;64.57;100888.31;105931;1255;67721;-65
2024/03/20 08:24:05;;;;;;;9.30;4.30;;;;;;;5.59;64.48;100889.77;106298;1257;64206;-69
2024/03/20 08:26:33;;;;;;;9.00;3.90;;;;;;;5.61;64.26;100892.98;106618;1255;74955;-69
2024/03/20 08:29:01;;;;;;;8.80;4.70;;;;;;;5.64;64.29;100895.29;105572;1254;61630;-68
2024/03/20 08:31:28;;;;;;;8.60;3.60;;;;;;;5.65;64.38;100887.73;105409;1252;62063;-65
2024/03/20 08:33:56;;;;;;;6.40;3.60;;;;;;;5.70;64.25;100890.95;105204;1256;66791;-67
2024/03/20 08:36:24;;;;;;;7.20;3.30;;;;;;;5.78;64.34;100893.67;105211;1254;63734;-67
2024/03/20 08:38:52;;;;;;;12.20;5.10;;;;;;;5.83;64.28;100893.73;105304;1254;66439;-68
2024/03/20 08:41:20;;;;;;;8.80;4.50;;;;;;;5.89;64.10;100893.61;105293;1256;61237;-67
2024/03/20 08:43:48;;;;;;;10.10;3.60;;;;;;;5.94;64.03;100899.29;105423;1251;61250;-67
2024/03/20 08:46:19;;;;;;;10.40;4.60;;;;;;;5.98;64.03;100902.58;106544;1254;68056;-68
2024/03/20 08:48:48;;;;;;;13.40;8.90;;;;;;;6.05;63.98;100900.80;106470;1257;64060;-67
2024/03/20 08:51:16;;;;;;;9.00;3.40;;;;;;;6.11;63.77;100897.92;106392;1252;63167;-66
2024/03/20 08:53:43;;;;;;;10.20;4.30;;;;;;;6.13;63.65;100891.87;105617;1251;61253;-66
2024/03/20 08:56:12;;;;;;;9.80;5.00;;;;;;;6.13;63.73;100896.20;105248;1255;61422;-65
2024/03/20 08:58:39;;;;;;;8.10;4.40;;;;;;;6.10;63.69;100895.48;109369;1250;64514;-69
2024/03/20 09:01:07;;;;;;;7.60;3.40;;;;;;;6.06;63.61;100897.45;109297;1251;71415;-68
2024/03/20 09:03:34;;;;;;;9.30;4.30;;;;;;;6.09;63.63;100893.84;109237;1252;74533;-66
2024/03/20 09:06:03;;;;;;;11.40;4.00;;;;;;;6.11;63.66;100894.04;105239;1256;61262;-63
2024/03/20 09:08:30;;;;;;;11.70;3.80;;;;;;;6.13;63.89;100893.96;106020;1256;61259;-61
2024/03/20 09:10:58;;;;;;;8.50;4.00;;;;;;;6.13;64.14;100895.13;105399;1251;76669;-61
2024/03/20 09:13:28;;;;;;;10.50;4.80;;;;;;;6.15;64.26;100896.63;105251;1257;61328;-60
2024/03/20 09:15:57;;;;;;;12.60;5.30;;;;;;;6.21;64.16;100895.97;109315;1251;64169;-59
2024/03/20 09:18:26;;;;;;;12.20;4.90;;;;;;;6.30;64.24;100897.73;109371;1254;59011;-60
2024/03/20 09:20:53;;;;;;;10.80;5.10;;;;;;;6.37;64.20;100895.27;109373;1251;59104;-61
2024/03/20 09:23:22;;;;;;;11.30;5.10;;;;;;;6.39;64.10;100894.46;109352;1251;74831;-60
2024/03/20 09:25:49;;;;;;;11.60;4.80;;;;;;;6.36;64.19;100892.94;109329;1251;73273;-65
2024/03/20 09:28:17;;;;;;;11.70;5.40;;;;;;;6.36;64.45;100888.05;106432;1257;72533;-67
2024/03/20 09:30:45;;;;;;;12.70;5.20;;;;;;;6.38;64.27;100894.17;105397;1256;61356;-65
2024/03/20 09:33:13;;;;;;;9.20;5.30;;;;;;;6.35;64.40;100893.13;106225;1256;61227;-63
2024/03/20 09:35:41;;;;;;;12.60;5.30;;;;;;;6.30;64.61;100894.27;106262;1257;65881;-67
2024/03/20 09:38:09;;;;;;;12.90;6.10;;;;;;;6.27;64.97;100895.44;106324;1251;63383;-63
2024/03/20 09:40:37;;;;;;;15.70;6.40;;;;;;;6.31;64.84;100895.27;106352;1257;65873;-67
2024/03/20 09:43:04;;;;;;;15.00;4.90;;;;;;;6.37;64.94;100897.40;106393;1256;61371;-67
2024/03/20 09:45:32;;;;;;;17.40;5.40;;;;;;;6.41;64.92;100898.23;105439;1257;61339;-66
2024/03/20 09:48:00;;;;;;;14.70;6.10;;;;;;;6.43;65.05;100896.02;106356;1256;66760;-61
2024/03/20 09:50:29;;;;;;;13.00;5.80;;;;;;;6.43;64.87;100896.04;105304;1252;61891;-71
2024/03/20 09:52:57;;;;;;;14.30;5.70;;;;;;;6.43;64.72;100896.68;106606;1256;63836;-62
2024/03/20 09:55:25;;;;;;;12.50;6.40;;;;;;;6.48;64.74;100898.69;106310;1256;61255;-59
2024/03/20 09:57:52;;;;;;;17.30;7.70;;;;;;;6.56;64.66;100896.02;106327;1254;61736;-67
2024/03/20 10:00:25;;;;;;;21.60;7.40;;;;;;;6.55;64.68;100885.75;106337;1251;66878;-65
2024/03/20 10:02:54;;;;;;;15.90;7.40;;;;;;;6.59;64.70;100890.45;106508;1256;62320;-67
2024/03/20 10:05:22;;;;;;;11.80;5.30;;;;;;;6.59;64.63;100888.36;106351;1254;66060;-68
2024/03/20 10:07:51;;;;;;;11.70;5.50;;;;;;;6.62;64.49;100886.27;106455;1251;61361;-71
2024/03/20 10:10:19;;;;;;;12.50;6.20;;;;;;;6.66;64.32;100887.09;106449;1254;61250;-72
2024/03/20 10:12:46;;;;;;;15.20;7.60;;;;;;;6.66;64.53;100889.33;106396;1251;66072;-70
2024/03/20 10:15:14;;;;;;;14.70;7.30;;;;;;;6.66;64.61;100885.71;106450;1256;73025;-69
2024/03/20 10:17:44;;;;;;;11.30;5.70;;;;;;;6.67;64.52;100884.24;106376;1253;62615;-72
2024/03/20 10:20:17;;;;;;;13.40;7.00;;;;;;;6.73;64.39;100881.84;106376;1256;61326;-65
2024/03/20 10:22:45;;;;;;;9.70;4.60;;;;;;;6.75;64.22;100878.02;106458;1254;61532;-69
2024/03/20 10:25:24;;;;;;;11.60;5.00;;;;;;;6.75;64.38;100876.33;107485;1256;73727;-68
2024/03/20 10:27:53;;;;;;;16.70;8.40;;;;;;;6.74;64.36;100877.08;106307;1257;63777;-70
2024/03/20 10:30:21;;;;;;;9.20;4.00;;;;;;;6.75;64.33;100875.79;106259;1256;62600;-68
2024/03/20 10:32:58;;;;;;;9.50;4.20;;;;;;;6.76;64.06;100872.42;106183;1256;61272;-66
2024/03/20 10:35:26;;;;;;;10.40;4.50;;;;;;;6.74;63.95;100868.52;106230;1254;61353;-75
2024/03/20 10:37:56;;;;;;;10.20;3.90;;;;;;;6.71;64.02;100867.99;106167;1257;65925;-73
2024/03/20 10:40:26;;;;;;;11.20;5.50;;;;;;;6.66;64.08;100866.48;106230;1254;63743;-69
2024/03/20 10:42:54;;;;;;;8.40;4.00;;;;;;;6.69;64.00;100865.31;106832;1256;62882;-75
2024/03/20 10:45:22;;;;;;;8.00;4.20;;;;;;;6.66;64.22;100855.90;106702;1254;61243;-72
2024/03/20 10:47:49;;;;;;;10.10;4.10;;;;;;;6.59;64.35;100850.86;106314;1257;61352;-68
2024/03/20 10:50:20;;;;;;;8.30;3.50;;;;;;;6.60;64.48;100846.61;106234;1251;68153;-73
2024/03/20 10:52:51;;;;;;;12.60;5.50;;;;;;;6.61;64.51;100845.02;106310;1257;70619;-59
2024/03/20 10:55:19;;;;;;;8.50;3.30;;;;;;;6.61;64.69;100845.53;106317;1256;74776;-71
2024/03/20 10:57:47;;;;;;;8.40;3.50;;;;;;;6.59;64.87;100848.08;106369;1254;61288;-72
2024/03/20 11:00:16;;;;;;;9.00;3.90;;;;;;;6.62;65.05;100850.04;106457;1252;61253;-72
2024/03/20 11:02:44;;;;;;;7.30;2.90;;;;;;;6.67;64.81;100848.00;106353;1254;68756;-71
2024/03/20 11:05:37;;;;;;;7.50;3.20;;;;;;;6.66;64.77;100848.05;106321;1255;62476;-73
2024/03/20 11:08:09;;;;;;;15.10;3.70;;;;;;;6.65;64.91;100849.85;106562;1252;74181;-73
2024/03/20 11:10:37;;;;;;;8.20;2.70;;;;;;;6.65;64.89;100848.95;107268;1251;62977;-73
2024/03/20 11:13:05;;;;;;;7.60;2.10;;;;;;;6.71;64.87;100851.61;106616;1252;61249;-71
2024/03/20 11:15:33;;;;;;;8.20;2.80;;;;;;;6.70;64.87;100846.58;105343;1251;68482;-69
2024/03/20 11:18:00;;;;;;;6.40;2.60;;;;;;;6.69;64.76;100849.63;106291;1256;72604;-70
2024/03/20 11:20:34;;;;;;;9.20;4.50;;;;;;;6.63;64.82;100848.91;106547;1255;75237;-69
2024/03/20 11:23:05;;;;;;;6.70;2.60;;;;;;;6.66;64.92;100851.36;106399;1251;61409;-66